Time;durP1;ratioP1;P1;durP2;ratioP2;P2;SDS_P1;SDS_P2;PMS_P1;PMS_P2;Temp;Humidity;BMP_temperature;BMP_pressure;BME280_temperature;BME280_humidity;BME280_pressure;Samples;Min_cycle;Max_cycle;Signal;HPM_P1;HPM_P2
2022/06/22 00:01:19;;;;;;;3.45;2.10;;;18.00;92.30;;;;;;4919811;29;20084;-82
2022/06/22 00:03:50;;;;;;;7.15;2.85;;;17.90;92.50;;;;;;4922072;29;20634;-81
2022/06/22 00:06:41;;;;;;;4.82;2.00;;;17.90;92.70;;;;;;4922338;29;20040;-82
2022/06/22 00:09:22;;;;;;;5.05;2.42;;;17.90;92.80;;;;;;4919946;29;20036;-82
2022/06/22 00:11:48;;;;;;;5.65;2.28;;;17.90;93.00;;;;;;4919353;29;20043;-81
2022/06/22 00:14:19;;;;;;;5.68;2.67;;;17.80;93.10;;;;;;4920308;29;20038;-80
2022/06/22 00:16:50;;;;;;;6.07;2.17;;;17.80;93.20;;;;;;4902438;29;20033;-82
2022/06/22 00:19:40;;;;;;;3.38;1.95;;;17.80;93.60;;;;;;4904772;29;20028;-81
2022/06/22 00:22:18;;;;;;;3.65;1.92;;;17.80;93.50;;;;;;4921339;29;20081;-81
2022/06/22 00:24:44;;;;;;;4.07;2.10;;;17.80;93.40;;;;;;4920407;29;20028;-81
2022/06/22 00:27:27;;;;;;;3.92;2.20;;;17.80;93.70;;;;;;4921066;29;20035;-84
2022/06/22 00:30:22;;;;;;;6.28;2.08;;;17.80;94.00;;;;;;4921312;29;20107;-83
2022/06/22 00:33:02;;;;;;;3.20;2.20;;;17.80;94.40;;;;;;4920158;29;20037;-81
2022/06/22 00:35:50;;;;;;;6.78;2.20;;;17.70;94.90;;;;;;4918835;29;20035;-82
2022/06/22 00:38:36;;;;;;;5.40;2.50;;;17.70;95.20;;;;;;4920450;29;20076;-83
2022/06/22 00:41:30;;;;;;;6.45;2.40;;;17.70;95.20;;;;;;4930838;29;20044;-83
2022/06/22 00:43:56;;;;;;;3.38;2.08;;;17.70;95.50;;;;;;4937775;29;20048;-80
2022/06/22 00:46:23;;;;;;;6.35;2.40;;;17.70;95.90;;;;;;4923313;29;20515;-82
2022/06/22 00:48:54;;;;;;;5.18;2.30;;;17.70;96.30;;;;;;4919154;29;20040;-82
2022/06/22 00:51:35;;;;;;;5.30;2.53;;;17.70;96.40;;;;;;4920690;29;20068;-82
2022/06/22 00:54:06;;;;;;;3.05;2.20;;;17.80;96.20;;;;;;4920208;29;20043;-82
2022/06/22 00:56:46;;;;;;;3.90;2.40;;;17.70;95.80;;;;;;4920243;29;20024;-83
2022/06/22 00:59:22;;;;;;;5.15;2.00;;;17.70;95.80;;;;;;4921349;29;20160;-82
2022/06/22 01:01:50;;;;;;;3.42;2.10;;;17.70;95.70;;;;;;4920670;29;20062;-82
2022/06/22 01:04:48;;;;;;;2.90;2.10;;;17.70;95.90;;;;;;4920590;29;20036;-82
2022/06/22 01:07:29;;;;;;;5.25;2.33;;;17.70;95.90;;;;;;4920956;29;20048;-82
2022/06/22 01:10:09;;;;;;;4.55;2.15;;;17.60;95.60;;;;;;4920797;29;20404;-83
2022/06/22 01:12:54;;;;;;;7.35;2.05;;;17.60;95.80;;;;;;4924543;29;20064;-82
2022/06/22 01:15:40;;;;;;;3.83;2.30;;;17.60;96.30;;;;;;4920630;29;20070;-83
2022/06/22 01:18:13;;;;;;;5.97;2.50;;;17.60;96.20;;;;;;4918739;29;20040;-83
2022/06/22 01:20:45;;;;;;;4.38;2.30;;;17.60;96.00;;;;;;4927003;29;20484;-84
2022/06/22 01:23:22;;;;;;;8.40;2.47;;;17.50;96.50;;;;;;4926884;29;20036;-84
2022/06/22 01:25:54;;;;;;;4.47;2.47;;;17.50;96.80;;;;;;4920150;29;20051;-84
2022/06/22 01:28:20;;;;;;;3.22;2.33;;;17.50;96.10;;;;;;4919450;29;20408;-83
2022/06/22 01:30:51;;;;;;;4.82;2.42;;;17.50;97.30;;;;;;4921183;29;20039;-82
2022/06/22 01:33:23;;;;;;;7.47;2.60;;;17.50;97.20;;;;;;4922516;29;20084;-83
2022/06/22 01:35:55;;;;;;;6.00;2.40;;;17.60;96.20;;;;;;4920348;29;20146;-84
2022/06/22 01:38:27;;;;;;;5.95;2.60;;;17.50;96.70;;;;;;4919699;29;20476;-83
2022/06/22 01:41:07;;;;;;;5.43;2.53;;;17.50;97.10;;;;;;4920449;29;20079;-83
2022/06/22 01:43:48;;;;;;;4.25;2.42;;;17.50;97.20;;;;;;4919094;29;20056;-84
2022/06/22 01:46:35;;;;;;;3.88;2.47;;;17.50;97.90;;;;;;4918433;29;20036;-81
2022/06/22 01:49:15;;;;;;;5.28;2.83;;;17.50;98.80;;;;;;4918004;29;20039;-83
2022/06/22 01:51:48;;;;;;;6.18;3.08;;;17.50;99.00;;;;;;4921955;29;20039;-82
2022/06/22 01:54:37;;;;;;;5.07;2.42;;;17.50;99.00;;;;;;4922800;29;20035;-80
2022/06/22 01:57:15;;;;;;;6.80;2.75;;;17.50;99.30;;;;;;4929659;29;20040;-81
2022/06/22 01:59:40;;;;;;;6.35;2.65;;;17.50;99.90;;;;;;4936969;29;20286;-80
2022/06/22 02:02:16;;;;;;;7.85;3.40;;;17.50;99.90;;;;;;4936589;29;20076;-81
2022/06/22 02:04:55;;;;;;;4.85;2.75;;;17.50;99.90;;;;;;4918341;29;20036;-82
2022/06/22 02:07:45;;;;;;;4.55;3.05;;;17.50;99.90;;;;;;4931413;29;20059;-82
2022/06/22 02:10:30;;;;;;;5.47;3.55;;;17.50;99.90;;;;;;4929079;29;20047;-81
2022/06/22 02:13:08;;;;;;;5.57;3.30;;;17.50;99.90;;;;;;4932459;29;20020;-82
2022/06/22 02:15:40;;;;;;;6.35;3.80;;;17.60;99.90;;;;;;4913150;29;20083;-83
2022/06/22 02:18:16;;;;;;;4.78;3.33;;;17.60;99.90;;;;;;4913489;29;20204;-82
2022/06/22 02:20:42;;;;;;;8.02;3.70;;;17.50;99.90;;;;;;4910803;29;20114;-82
2022/06/22 02:23:32;;;;;;;7.40;3.10;;;17.60;99.90;;;;;;4919848;29;20028;-81
2022/06/22 02:26:20;;;;;;;5.13;2.95;;;17.50;99.90;;;;;;4930221;29;20068;-83
2022/06/22 02:28:47;;;;;;;12.63;3.25;;;17.50;99.90;;;;;;4928992;29;20032;-83
2022/06/22 02:31:14;;;;;;;7.57;2.83;;;17.50;99.90;;;;;;4928637;29;20025;-82
2022/06/22 02:33:43;;;;;;;5.00;2.75;;;17.60;99.90;;;;;;4928876;29;20044;-84
2022/06/22 02:36:10;;;;;;;6.57;2.67;;;17.60;99.90;;;;;;4930233;29;20472;-84
2022/06/22 02:38:37;;;;;;;4.85;2.67;;;17.50;99.90;;;;;;4929535;29;20036;-84
2022/06/22 02:46:38;;;;;;;4.07;2.40;;;17.50;99.90;;;;;;4934301;29;20072;-81
2022/06/22 02:49:32;;;;;;;5.30;2.80;;;17.50;99.90;;;;;;4936359;29;20055;-84
2022/06/22 02:52:02;;;;;;;3.92;2.50;;;17.50;99.90;;;;;;4934512;29;20152;-81
2022/06/22 02:54:40;;;;;;;7.82;2.70;;;17.50;99.90;;;;;;4934472;29;20032;-81
2022/06/22 02:57:35;;;;;;;5.95;2.30;;;17.40;99.90;;;;;;4934203;29;20032;-82
2022/06/22 03:00:02;;;;;;;5.22;2.40;;;17.40;99.90;;;;;;4914676;29;20040;-82
2022/06/22 03:02:27;;;;;;;4.30;2.40;;;17.40;99.90;;;;;;4932938;29;20021;-81
2022/06/22 03:04:56;;;;;;;7.38;3.38;;;17.40;99.90;;;;;;4933870;29;20109;-81
2022/06/22 03:07:22;;;;;;;8.77;2.85;;;17.40;99.90;;;;;;4932228;29;20032;-82
2022/06/22 03:09:51;;;;;;;4.85;2.30;;;17.40;99.90;;;;;;4932139;29;20035;-80
2022/06/22 03:12:17;;;;;;;6.82;2.97;;;17.40;99.90;;;;;;4933425;29;20024;-83
2022/06/22 03:14:53;;;;;;;2.72;2.47;;;17.40;99.90;;;;;;4932175;29;20115;-84
2022/06/22 03:17:27;;;;;;;6.22;3.20;;;17.40;99.90;;;;;;4932363;29;20038;-83
2022/06/22 03:20:00;;;;;;;3.88;2.83;;;17.50;99.90;;;;;;4937276;29;20041;-83
2022/06/22 03:22:51;;;;;;;6.13;3.15;;;17.40;99.90;;;;;;4931786;29;20028;-83
2022/06/22 03:25:27;;;;;;;7.40;3.20;;;17.50;99.90;;;;;;4930880;29;20046;-83
2022/06/22 03:28:01;;;;;;;6.97;3.17;;;17.50;99.90;;;;;;4929646;29;20044;-83
2022/06/22 03:30:30;;;;;;;;;;;17.50;99.90;;;;;;4929165;29;20059;-81
2022/06/22 03:33:43;;;;;;;5.22;3.40;;;17.50;99.90;;;;;;4930400;29;19939;-81
2022/06/22 03:36:30;;;;;;;3.78;2.70;;;17.50;99.90;;;;;;4928063;29;20036;-83
2022/06/22 03:39:08;;;;;;;4.75;2.80;;;17.50;99.90;;;;;;4923300;29;20032;-83
2022/06/22 03:41:44;;;;;;;3.80;2.67;;;17.50;99.90;;;;;;4924920;29;20434;-82
2022/06/22 03:44:16;;;;;;;6.15;3.28;;;17.60;99.90;;;;;;4924867;29;20157;-83
2022/06/22 03:46:50;;;;;;;5.03;3.03;;;17.60;99.90;;;;;;4928806;29;20095;-82
2022/06/22 03:49:31;;;;;;;6.60;3.10;;;17.60;99.90;;;;;;4939400;29;20052;-83
2022/06/22 03:52:06;;;;;;;6.53;3.40;;;17.60;99.90;;;;;;4934502;29;20453;-82
2022/06/22 03:54:44;;;;;;;;;;;17.60;99.90;;;;;;4930343;29;20035;-81
2022/06/22 03:57:14;;;;;;;6.78;2.70;;;17.70;99.90;;;;;;4929425;29;19911;-81
2022/06/22 03:59:45;;;;;;;8.05;2.80;;;17.80;99.90;;;;;;4929783;29;20086;-82
2022/06/22 04:02:11;;;;;;;5.20;3.00;;;17.90;99.90;;;;;;4930998;29;20039;-79
2022/06/22 04:04:37;;;;;;;4.43;3.20;;;18.00;99.90;;;;;;4931242;29;20055;-82
2022/06/22 04:07:05;;;;;;;4.70;2.70;;;18.20;99.90;;;;;;4931861;29;20032;-81
2022/06/22 04:09:31;;;;;;;10.55;3.10;;;18.40;99.90;;;;;;4933817;29;20032;-81
2022/06/22 04:12:04;;;;;;;9.43;2.97;;;18.80;99.90;;;;;;4936123;29;20039;-81
2022/06/22 04:14:41;;;;;;;5.45;2.70;;;19.10;99.90;;;;;;4931897;29;20063;-84
2022/06/22 04:17:32;;;;;;;7.07;2.92;;;19.50;99.90;;;;;;4922413;29;20045;-81
2022/06/22 04:20:20;;;;;;;8.18;3.00;;;19.50;99.90;;;;;;4917467;29;20444;-82
2022/06/22 04:22:52;;;;;;;5.22;3.10;;;19.40;99.90;;;;;;4926275;29;20036;-81
2022/06/22 04:25:32;;;;;;;12.38;3.00;;;19.40;99.90;;;;;;4925702;29;20035;-82
2022/06/22 04:28:02;;;;;;;6.78;3.13;;;19.50;99.90;;;;;;4925746;29;20028;-82
2022/06/22 04:30:37;;;;;;;7.28;2.92;;;19.50;99.90;;;;;;4931466;29;20032;-79
2022/06/22 04:33:14;;;;;;;8.10;2.90;;;19.60;99.90;;;;;;4933161;29;20103;-80
2022/06/22 04:36:02;;;;;;;5.43;2.90;;;19.60;99.90;;;;;;4931325;29;20605;-82
2022/06/22 04:38:46;;;;;;;5.60;3.10;;;19.50;99.90;;;;;;4929402;29;20063;-82
2022/06/22 04:41:33;;;;;;;5.28;3.00;;;19.40;99.90;;;;;;4931114;29;20035;-81
2022/06/22 04:44:05;;;;;;;5.28;3.10;;;19.30;99.90;;;;;;4925561;29;20129;-85
2022/06/22 04:46:36;;;;;;;8.07;3.47;;;19.30;99.90;;;;;;4919221;29;20024;-84
2022/06/22 04:49:29;;;;;;;6.82;3.45;;;19.40;99.90;;;;;;4920433;29;20036;-83
2022/06/22 04:52:03;;;;;;;6.07;3.10;;;19.50;99.90;;;;;;4923281;29;20055;-85
2022/06/22 04:54:35;;;;;;;7.03;3.22;;;19.70;99.90;;;;;;4924576;29;20075;-80
2022/06/22 04:57:14;;;;;;;6.10;2.63;;;20.00;99.90;;;;;;4922909;29;20032;-83
2022/06/22 04:59:41;;;;;;;7.22;2.95;;;20.20;99.80;;;;;;4921487;29;20039;-82
2022/06/22 05:02:11;;;;;;;12.27;2.75;;;20.30;99.70;;;;;;4921367;29;20028;-81
2022/06/22 05:04:44;;;;;;;6.03;2.83;;;20.40;99.70;;;;;;4923498;29;20111;-83
2022/06/22 05:07:32;;;;;;;10.77;3.10;;;20.50;99.40;;;;;;4923178;29;20039;-84
2022/06/22 05:10:23;;;;;;;8.50;3.65;;;20.50;99.20;;;;;;4924120;29;20103;-82
2022/06/22 05:12:55;;;;;;;9.77;3.72;;;20.40;99.20;;;;;;4925374;29;20036;-81
2022/06/22 05:15:27;;;;;;;15.05;3.78;;;20.30;99.20;;;;;;4926764;29;20032;-82
2022/06/22 05:17:53;;;;;;;6.65;2.80;;;20.30;98.90;;;;;;4927301;29;20038;-84
2022/06/22 05:20:33;;;;;;;8.80;3.47;;;20.50;99.50;;;;;;4906273;29;20036;-85
2022/06/22 05:23:01;;;;;;;9.65;3.25;;;20.60;98.40;;;;;;4924338;29;20028;-86
2022/06/22 05:25:29;;;;;;;10.50;3.40;;;20.70;98.30;;;;;;4922864;29;20034;-85
2022/06/22 05:28:17;;;;;;;7.88;3.67;;;20.60;98.60;;;;;;4926366;29;20028;-84
2022/06/22 05:31:10;;;;;;;10.70;2.80;;;20.60;98.20;;;;;;4922201;29;20025;-84
2022/06/22 05:33:38;;;;;;;6.25;3.40;;;20.80;98.00;;;;;;4931649;29;20029;-84
2022/06/22 05:36:11;;;;;;;16.95;3.50;;;21.10;97.80;;;;;;4937235;29;20040;-84
2022/06/22 05:38:43;;;;;;;17.48;3.40;;;21.20;97.50;;;;;;4949851;23;20048;-86
2022/06/22 05:41:11;;;;;;;10.65;3.47;;;21.40;97.20;;;;;;4923443;29;20092;-87
2022/06/22 05:43:39;;;;;;;8.90;3.03;;;21.40;97.30;;;;;;4939527;29;20050;-86
2022/06/22 05:46:07;;;;;;;9.88;3.80;;;21.70;97.20;;;;;;4924938;29;20065;-88
2022/06/22 05:48:44;;;;;;;21.75;3.92;;;21.80;97.00;;;;;;4923644;29;20039;-90
2022/06/22 05:51:20;;;;;;;11.68;4.75;;;21.90;96.80;;;;;;4921764;29;20040;-89
2022/06/22 05:54:15;;;;;;;8.07;3.70;;;22.10;96.40;;;;;;4905193;29;20067;-89
2022/06/22 05:56:53;;;;;;;12.13;3.28;;;22.10;96.00;;;;;;4867249;29;20150;-89
2022/06/22 05:59:31;;;;;;;10.40;3.55;;;22.10;95.60;;;;;;4913445;29;20013;-90
2022/06/22 06:02:01;;;;;;;11.13;2.90;;;22.10;95.10;;;;;;4908747;29;20025;-88
2022/06/22 06:04:53;;;;;;;15.85;6.05;;;21.90;95.70;;;;;;4897470;29;20036;-88
2022/06/22 06:08:00;;;;;;;6.13;2.78;;;22.00;95.20;;;;;;4907040;29;20135;-88
2022/06/22 06:10:36;;;;;;;10.73;3.08;;;22.20;94.90;;;;;;4901005;29;20310;-89
2022/06/22 06:13:12;;;;;;;11.32;2.65;;;22.30;94.10;;;;;;4918134;29;20020;-89
2022/06/22 06:15:39;;;;;;;5.80;2.35;;;22.20;93.50;;;;;;4913911;29;20032;-87
2022/06/22 06:18:11;;;;;;;13.85;2.40;;;22.20;92.90;;;;;;4909645;29;20032;-87
2022/06/22 06:20:46;;;;;;;7.80;2.53;;;22.30;93.50;;;;;;4910799;29;20059;-87
2022/06/22 06:23:27;;;;;;;4.93;2.08;;;22.30;93.20;;;;;;4912247;29;20071;-85
2022/06/22 06:28:46;;;;;;;6.20;2.38;;;22.50;91.70;;;;;;4915287;29;20051;-87
2022/06/22 06:31:20;;;;;;;6.15;2.22;;;22.50;91.70;;;;;;4916590;29;20036;-86
2022/06/22 06:33:47;;;;;;;;;;;22.30;92.00;;;;;;4924790;29;20037;-85
2022/06/22 06:36:26;;;;;;;5.22;2.17;;;22.40;91.80;;;;;;4924837;29;19899;-85
2022/06/22 06:39:13;;;;;;;3.47;2.17;;;22.50;91.70;;;;;;4927064;29;20116;-86
2022/06/22 06:42:03;;;;;;;7.82;1.73;;;22.80;90.80;;;;;;4905797;29;20039;-87
2022/06/22 06:44:50;;;;;;;5.35;2.08;;;22.70;90.70;;;;;;4927497;29;20071;-86
2022/06/22 06:47:25;;;;;;;4.07;1.60;;;22.60;90.70;;;;;;4925236;29;20075;-87
2022/06/22 06:50:00;;;;;;;5.38;2.17;;;22.60;90.80;;;;;;4923750;29;20115;-88
2022/06/22 06:52:44;;;;;;;6.45;2.88;;;22.60;90.80;;;;;;4918293;29;20044;-88
2022/06/22 06:55:13;;;;;;;8.20;3.33;;;22.60;90.40;;;;;;4920084;29;20073;-88
2022/06/22 06:58:05;;;;;;;10.75;3.20;;;22.60;90.50;;;;;;4920540;29;20033;-87
2022/06/22 07:00:34;;;;;;;13.23;3.42;;;22.60;90.70;;;;;;4922679;29;20282;-87
2022/06/22 07:03:00;;;;;;;9.63;3.35;;;22.60;90.90;;;;;;4924263;29;20096;-86
2022/06/22 07:05:29;;;;;;;8.40;3.10;;;22.60;90.80;;;;;;4931210;29;20086;-85
2022/06/22 07:08:08;;;;;;;6.50;2.63;;;22.80;90.60;;;;;;4923352;29;20029;-84
2022/06/22 07:10:41;;;;;;;9.48;3.10;;;22.80;90.40;;;;;;4927106;29;20024;-84
2022/06/22 07:13:18;;;;;;;8.07;2.15;;;22.90;90.30;;;;;;4924548;29;20240;-84
2022/06/22 07:15:48;;;;;;;5.93;2.25;;;23.10;89.80;;;;;;4918864;29;20051;-84
2022/06/22 07:18:32;;;;;;;9.93;2.58;;;23.10;88.60;;;;;;4915751;29;20032;-86
2022/06/22 07:21:21;;;;;;;8.27;2.65;;;22.80;88.60;;;;;;4934832;29;20056;-88
2022/06/22 07:24:19;;;;;;;4.43;2.03;;;22.70;90.00;;;;;;4942744;29;20096;-85
2022/06/22 07:27:05;;;;;;;11.63;2.38;;;22.80;89.70;;;;;;4942805;29;20028;-85
2022/06/22 07:29:46;;;;;;;3.97;2.00;;;22.90;89.70;;;;;;4942066;29;20068;-87
2022/06/22 07:32:38;;;;;;;7.65;2.47;;;22.80;89.60;;;;;;4941762;29;20021;-86
2022/06/22 07:35:18;;;;;;;14.30;2.40;;;22.70;89.10;;;;;;4936666;29;20036;-87
2022/06/22 07:38:02;;;;;;;8.00;2.20;;;22.70;90.00;;;;;;4935322;29;20103;-89
2022/06/22 07:40:29;;;;;;;14.35;3.60;;;23.00;89.80;;;;;;4936391;29;20624;-88
2022/06/22 07:42:57;;;;;;;10.23;2.95;;;23.30;89.00;;;;;;4936789;29;20024;-85
2022/06/22 07:45:25;;;;;;;9.60;2.63;;;23.70;87.60;;;;;;4937683;29;20059;-88
2022/06/22 07:48:12;;;;;;;10.48;2.95;;;23.90;86.90;;;;;;4938033;29;20047;-85
2022/06/22 07:50:45;;;;;;;23.70;11.35;;;24.00;86.70;;;;;;4938409;29;20373;-86
2022/06/22 07:53:37;;;;;;;6.75;2.50;;;24.00;86.20;;;;;;4938735;29;20024;-87
2022/06/22 07:56:15;;;;;;;4.18;2.47;;;23.90;86.20;;;;;;4933033;29;20056;-84
2022/06/22 07:59:03;;;;;;;6.85;2.53;;;23.70;87.20;;;;;;4941921;29;20044;-87
2022/06/22 08:01:37;;;;;;;7.15;2.90;;;23.50;88.00;;;;;;4942028;29;20039;-86
2022/06/22 08:04:20;;;;;;;9.98;2.85;;;23.50;88.00;;;;;;4942231;29;20046;-87
2022/06/22 08:06:56;;;;;;;8.07;2.88;;;23.40;88.20;;;;;;4939544;29;20484;-86
2022/06/22 08:09:31;;;;;;;11.73;5.22;;;23.40;89.10;;;;;;4939667;29;20032;-87
2022/06/22 08:12:09;;;;;;;9.55;3.30;;;23.50;88.60;;;;;;4937231;29;20044;-88
2022/06/22 08:14:40;;;;;;;8.00;3.00;;;23.50;88.20;;;;;;4936034;29;20032;-88
2022/06/22 08:17:31;;;;;;;8.27;3.25;;;23.60;86.50;;;;;;4933493;29;20046;-86
2022/06/22 08:19:57;;;;;;;10.13;3.80;;;23.70;86.40;;;;;;4930704;29;20059;-87
2022/06/22 08:22:26;;;;;;;10.25;3.25;;;23.90;86.80;;;;;;4935498;29;20016;-89
2022/06/22 08:24:55;;;;;;;8.40;3.85;;;23.90;86.80;;;;;;4937011;29;20058;-88
2022/06/22 08:27:24;;;;;;;13.90;3.25;;;23.90;86.90;;;;;;4918900;29;20047;-89
2022/06/22 08:29:52;;;;;;;8.60;2.67;;;23.80;86.70;;;;;;4920106;29;20064;-88
2022/06/22 08:32:36;;;;;;;7.95;2.60;;;24.00;87.10;;;;;;4936449;29;20052;-88
2022/06/22 08:35:14;;;;;;;7.13;2.63;;;24.40;85.70;;;;;;4936903;29;20036;-89
2022/06/22 08:37:46;;;;;;;3.40;2.22;;;24.80;83.50;;;;;;4920411;29;20055;-87
2022/06/22 08:40:33;;;;;;;4.95;2.20;;;25.30;82.20;;;;;;4940336;29;20117;-88
2022/06/22 08:43:26;;;;;;;4.25;1.80;;;25.80;80.70;;;;;;4939155;29;20028;-90
2022/06/22 08:46:25;;;;;;;4.53;2.13;;;26.40;79.80;;;;;;4938677;29;20048;-88
2022/06/22 08:49:23;;;;;;;6.00;1.90;;;26.90;79.40;;;;;;4920777;29;20047;-89
2022/06/22 08:51:52;;;;;;;6.22;2.00;;;27.00;78.10;;;;;;4941037;29;20040;-89
2022/06/22 08:54:56;;;;;;;5.35;2.10;;;27.00;77.70;;;;;;4940520;29;20079;-89
2022/06/22 08:57:40;;;;;;;5.25;2.20;;;27.00;77.10;;;;;;4921196;29;20039;-89
2022/06/22 09:00:26;;;;;;;6.85;2.15;;;26.80;76.50;;;;;;4922185;29;20131;-88
2022/06/22 09:03:03;;;;;;;10.20;2.05;;;26.90;76.50;;;;;;4920452;29;20138;-90
2022/06/22 09:05:46;;;;;;;3.50;1.95;;;26.80;75.70;;;;;;4935291;29;20057;-88
2022/06/22 09:08:30;;;;;;;4.13;2.15;;;26.90;75.80;;;;;;4935020;29;20032;-88
2022/06/22 09:11:25;;;;;;;6.53;1.85;;;27.00;75.10;;;;;;4934950;29;20087;-89
2022/06/22 09:14:25;;;;;;;3.10;1.92;;;27.30;75.70;;;;;;4932880;29;20020;-89
2022/06/22 09:17:10;;;;;;;6.70;1.85;;;27.30;74.50;;;;;;4932947;29;20079;-89
2022/06/22 09:20:02;;;;;;;4.32;1.60;;;27.50;73.60;;;;;;4929808;29;20036;-89
2022/06/22 09:22:58;;;;;;;6.20;1.35;;;27.40;73.20;;;;;;4933241;29;20036;-88
2022/06/22 09:25:53;;;;;;;4.97;1.77;;;27.60;72.50;;;;;;4925795;29;20043;-90
2022/06/22 09:28:33;;;;;;;2.95;1.90;;;27.60;71.70;;;;;;4934102;29;20064;-89
2022/06/22 09:31:14;;;;;;;9.95;2.13;;;27.90;71.60;;;;;;4932411;29;20095;-89
2022/06/22 09:34:13;;;;;;;9.15;3.10;;;27.70;71.30;;;;;;4931068;29;20079;-89
2022/06/22 09:36:58;;;;;;;5.63;1.90;;;27.80;71.60;;;;;;4923734;29;20051;-89
2022/06/22 09:40:05;;;;;;;5.20;2.28;;;28.10;71.40;;;;;;4912954;29;20068;-89
2022/06/22 09:43:00;;;;;;;5.22;2.00;;;28.10;70.50;;;;;;4936489;29;20020;-88
2022/06/22 09:45:41;;;;;;;6.35;1.90;;;27.90;70.70;;;;;;4929011;29;20043;-89
2022/06/22 09:48:26;;;;;;;4.80;1.67;;;28.10;68.70;;;;;;4929893;29;20087;-89
2022/06/22 09:50:55;;;;;;;;;;;28.20;69.60;;;;;;4935204;29;20032;-89
2022/06/22 09:53:39;;;;;;;2.97;1.60;;;28.20;68.10;;;;;;4931099;29;19907;-89
2022/06/22 09:56:27;;;;;;;4.65;1.73;;;28.20;67.70;;;;;;4929608;29;20039;-88
2022/06/22 09:59:03;;;;;;;9.27;2.10;;;27.80;68.40;;;;;;4928871;29;20032;-87
2022/06/22 10:01:47;;;;;;;2.17;1.55;;;27.80;68.60;;;;;;4929484;29;20510;-87
2022/06/22 10:04:34;;;;;;;2.53;1.60;;;28.40;67.10;;;;;;4930968;29;20036;-89
2022/06/22 10:07:22;;;;;;;7.72;2.25;;;28.40;66.90;;;;;;4929527;29;20043;-88
2022/06/22 10:10:23;;;;;;;5.55;1.95;;;29.10;65.70;;;;;;4930206;29;20055;-88
2022/06/22 10:12:55;;;;;;;9.40;1.95;;;29.70;65.50;;;;;;4933914;29;20034;-88
2022/06/22 10:15:39;;;;;;;6.45;2.05;;;30.20;64.00;;;;;;4934146;29;20079;-89
2022/06/22 10:18:26;;;;;;;11.02;2.50;;;31.30;62.70;;;;;;4934359;29;20043;-88
2022/06/22 10:21:22;;;;;;;15.02;2.80;;;32.50;61.50;;;;;;4934661;29;20063;-90
2022/06/22 10:23:54;;;;;;;11.35;2.35;;;33.00;59.70;;;;;;4935194;29;20091;-90
2022/06/22 10:26:35;;;;;;;9.88;3.15;;;33.30;59.20;;;;;;4940861;29;20036;-89
2022/06/22 10:29:15;;;;;;;3.05;1.80;;;33.50;58.40;;;;;;4935953;29;20520;-89
2022/06/22 10:32:18;;;;;;;6.55;1.90;;;34.30;57.50;;;;;;4936967;29;20080;-88
2022/06/22 10:35:17;;;;;;;9.32;2.70;;;35.40;56.00;;;;;;4937182;29;20024;-90
2022/06/22 10:38:21;;;;;;;7.55;2.38;;;37.40;53.90;;;;;;4935058;29;20511;-88
2022/06/22 10:46:51;;;;;;;13.90;3.55;;;37.90;50.10;;;;;;4938270;29;20087;-88
2022/06/22 10:49:50;;;;;;;11.48;2.17;;;37.90;49.70;;;;;;4941785;29;20043;-88
2022/06/22 10:52:24;;;;;;;2.75;1.70;;;38.90;49.00;;;;;;4942330;29;20016;-88
2022/06/22 10:54:59;;;;;;;;;;;38.80;48.20;;;;;;4940859;29;20472;-88
2022/06/22 10:57:34;;;;;;;10.55;2.95;;;39.70;48.00;;;;;;4932435;29;19911;-86
2022/06/22 11:00:30;;;;;;;6.75;1.92;;;39.70;47.70;;;;;;4931960;29;20043;-88
2022/06/22 11:03:24;;;;;;;4.90;2.03;;;39.60;46.90;;;;;;4931565;29;20043;-89
2022/06/22 11:06:16;;;;;;;8.97;4.50;;;38.80;47.20;;;;;;4930814;29;20036;-88
2022/06/22 11:09:05;;;;;;;6.65;1.70;;;39.10;47.10;;;;;;4929998;29;20079;-88
2022/06/22 11:12:03;;;;;;;5.53;2.15;;;40.10;46.60;;;;;;4932232;29;20047;-89
2022/06/22 11:15:06;;;;;;;5.15;2.40;;;40.10;46.30;;;;;;4932541;29;20028;-89
2022/06/22 11:17:50;;;;;;;16.88;8.55;;;40.00;46.50;;;;;;4932029;29;20129;-88
2022/06/22 11:20:32;;;;;;;4.88;2.65;;;41.00;46.00;;;;;;4930910;29;20485;-88
2022/06/22 11:23:11;;;;;;;14.15;6.18;;;40.50;44.90;;;;;;4930696;29;20560;-87
2022/06/22 11:32:29;;;;;;;21.35;9.10;;;39.20;46.00;;;;;;4933228;29;20046;-89
2022/06/22 11:35:39;;;;;;;9.23;4.80;;;39.70;45.90;;;;;;4916198;29;20127;-88
2022/06/22 11:38:39;;;;;;;9.77;3.53;;;39.70;45.80;;;;;;4918344;23;20124;-82
2022/06/22 11:41:23;;;;;;;7.65;2.60;;;40.00;45.30;;;;;;4928695;29;20032;-84
2022/06/22 11:44:24;;;;;;;8.43;2.40;;;39.30;45.70;;;;;;4923840;29;20036;-81
2022/06/22 11:46:54;;;;;;;9.60;2.33;;;39.20;45.70;;;;;;4924091;29;20032;-82
2022/06/22 11:49:34;;;;;;;4.55;2.28;;;39.30;45.50;;;;;;4908338;29;20549;-83
2022/06/22 11:52:28;;;;;;;22.67;9.98;;;39.80;45.60;;;;;;4905003;29;20512;-81
2022/06/22 11:55:18;;;;;;;12.05;5.97;;;39.50;45.30;;;;;;4905976;29;20168;-81
2022/06/22 11:58:13;;;;;;;5.80;1.75;;;39.70;45.10;;;;;;4904545;29;20481;-84
2022/06/22 12:01:17;;;;;;;10.32;3.30;;;39.90;44.40;;;;;;4901422;29;20058;-83
2022/06/22 12:03:59;;;;;;;15.27;6.50;;;40.50;44.60;;;;;;4909125;29;20512;-86
2022/06/22 12:07:03;;;;;;;5.95;3.60;;;40.90;44.60;;;;;;4906469;29;20122;-82
2022/06/22 12:09:39;;;;;;;7.70;3.90;;;41.00;44.50;;;;;;4909778;29;20052;-83
2022/06/22 12:12:26;;;;;;;11.40;5.88;;;40.80;44.80;;;;;;4904325;29;20954;-83
2022/06/22 12:15:05;;;;;;;6.78;3.00;;;41.20;44.70;;;;;;4909631;29;20032;-84
2022/06/22 12:17:56;;;;;;;8.90;4.55;;;40.80;44.60;;;;;;4914606;29;20040;-83
2022/06/22 12:20:28;;;;;;;10.88;5.60;;;40.80;44.70;;;;;;4917365;29;20035;-82
2022/06/22 12:23:24;;;;;;;8.55;3.53;;;41.20;44.50;;;;;;4909532;29;20037;-81
2022/06/22 12:26:24;;;;;;;3.90;2.33;;;41.70;44.30;;;;;;4905252;29;20037;-84
2022/06/22 12:29:24;;;;;;;3.85;2.03;;;40.90;43.80;;;;;;4906423;29;20044;-83
2022/06/22 12:31:57;;;;;;;5.68;2.30;;;40.10;44.50;;;;;;4907145;29;20053;-83
2022/06/22 12:34:33;;;;;;;;;;;39.40;45.00;;;;;;4904904;29;20047;-84
2022/06/22 12:37:06;;;;;;;4.95;2.28;;;38.80;45.70;;;;;;4916186;29;19912;-82
2022/06/22 12:39:45;;;;;;;6.22;2.80;;;38.20;46.30;;;;;;4919568;29;20109;-81
2022/06/22 12:42:20;;;;;;;5.75;2.10;;;38.60;46.20;;;;;;4918044;29;20041;-83
2022/06/22 12:45:04;;;;;;;3.65;1.90;;;39.30;45.90;;;;;;4906596;29;20060;-82
2022/06/22 12:47:58;;;;;;;3.50;1.85;;;39.60;45.60;;;;;;4902655;29;20044;-83
2022/06/22 12:50:42;;;;;;;3.70;2.00;;;39.90;45.30;;;;;;4904837;29;20028;-82
2022/06/22 12:53:20;;;;;;;4.03;1.98;;;38.80;45.70;;;;;;4886148;29;20096;-81
2022/06/22 12:56:11;;;;;;;4.45;2.00;;;38.50;46.50;;;;;;4904504;29;20076;-81
2022/06/22 12:59:07;;;;;;;8.73;2.33;;;38.10;46.20;;;;;;4903336;29;20032;-83
2022/06/22 13:01:34;;;;;;;8.30;2.35;;;37.20;46.60;;;;;;4900612;29;20131;-83
2022/06/22 13:04:06;;;;;;;3.53;2.20;;;36.10;47.80;;;;;;4905513;29;20037;-83
2022/06/22 13:06:34;;;;;;;3.60;2.30;;;35.50;48.60;;;;;;4904881;29;20071;-84
2022/06/22 13:09:03;;;;;;;9.50;2.50;;;35.00;49.50;;;;;;4904841;29;20033;-82
2022/06/22 13:11:30;;;;;;;7.75;2.30;;;34.40;49.90;;;;;;4907542;29;20052;-81
2022/06/22 13:14:13;;;;;;;5.80;2.20;;;33.80;50.60;;;;;;4909670;29;20029;-83
2022/06/22 13:16:57;;;;;;;6.00;2.53;;;33.30;51.40;;;;;;4910079;29;20025;-83
2022/06/22 13:19:45;;;;;;;6.93;2.85;;;33.20;51.60;;;;;;4907084;29;20044;-85
2022/06/22 13:22:33;;;;;;;4.00;1.95;;;33.10;51.50;;;;;;4904767;29;20122;-84
2022/06/22 13:25:36;;;;;;;3.58;1.90;;;32.90;52.10;;;;;;4905109;29;20039;-83
2022/06/22 13:28:23;;;;;;;9.85;2.15;;;32.70;52.40;;;;;;4905586;29;20029;-85
2022/06/22 13:31:19;;;;;;;6.40;2.10;;;32.50;52.60;;;;;;4889337;29;20028;-85
2022/06/22 13:34:11;;;;;;;3.97;1.73;;;32.70;52.60;;;;;;4906387;29;20036;-82
2022/06/22 13:36:59;;;;;;;6.70;2.25;;;32.60;52.80;;;;;;4904500;29;20044;-83
2022/06/22 13:39:46;;;;;;;6.25;2.28;;;32.50;52.90;;;;;;4904600;29;20044;-82
2022/06/22 13:42:37;;;;;;;8.07;2.20;;;32.60;52.40;;;;;;4907141;29;20516;-83
2022/06/22 13:45:21;;;;;;;4.00;2.13;;;32.70;52.30;;;;;;4907474;29;20060;-85
2022/06/22 13:48:02;;;;;;;11.52;2.35;;;32.50;52.40;;;;;;4914914;29;20040;-83
2022/06/22 13:51:08;;;;;;;7.43;2.88;;;32.10;53.20;;;;;;4917339;29;20029;-82
2022/06/22 13:53:45;;;;;;;3.03;1.80;;;31.80;54.00;;;;;;4912630;29;20037;-83
2022/06/22 13:56:31;;;;;;;2.50;1.98;;;32.20;54.20;;;;;;4911176;29;20028;-83
2022/06/22 13:59:02;;;;;;;5.13;1.73;;;32.60;53.20;;;;;;4906422;29;20048;-84
2022/06/22 14:01:39;;;;;;;4.88;2.10;;;32.50;53.40;;;;;;4907182;29;20401;-84
2022/06/22 14:04:30;;;;;;;3.67;2.00;;;32.10;54.10;;;;;;4905295;29;20100;-83
2022/06/22 14:07:15;;;;;;;6.18;2.15;;;31.50;54.90;;;;;;4902643;29;20116;-84
2022/06/22 14:09:43;;;;;;;4.55;2.30;;;31.10;56.00;;;;;;4903105;29;20517;-81
2022/06/22 14:12:16;;;;;;;5.10;2.20;;;30.90;56.20;;;;;;4905304;29;20033;-83
2022/06/22 14:14:51;;;;;;;6.63;1.75;;;30.60;56.40;;;;;;4904964;29;20037;-82
2022/06/22 14:17:28;;;;;;;5.57;1.75;;;30.00;56.60;;;;;;4905963;29;20035;-83